CheckWX is a tool to help pilots better visualize weather data.  It is not intended as a substitute for an official pre-flight weather briefing.

21:04:40 UTC

DAUZ METAR
In Aménas Airport
Aménas, Algeria
Current

1 hour ago

DAUZ 232000Z 33007KT 8000 NSC 12/M01 Q1018
Observed
Feb-23 @ 20:00 UTC
Wind
  • 330° at 7 KTS
Visibility
7,998 meters
Flight Rules
MVFR
Cloud Levels
  • Clear skies
Temperature
12°C / 54°F
Dewpoint
-1°C / 30°F
Humidity
41%
Altimeter
30.06" Hg
Pressure
1017.92 hPa
Previous

2 hours ago

DAUZ 231900Z 33010KT 8000 NSC 13/M02 Q1018
Observed
Feb-23 @ 19:00 UTC
Wind
  • 330° at 10 KTS
Visibility
7,998 meters
Flight Rules
MVFR
Cloud Levels
  • Clear skies
Temperature
13°C / 55°F
Dewpoint
-2°C / 28°F
Humidity
36%
Altimeter
30.06" Hg
Pressure
1017.92 hPa
Previous

3 hours ago

DAUZ 231800Z 33014KT 8000 NSC 14/M03 Q1017
Observed
Feb-23 @ 18:00 UTC
Wind
  • 330° at 14 KTS
Visibility
7,998 meters
Flight Rules
MVFR
Cloud Levels
  • Clear skies
Temperature
14°C / 57°F
Dewpoint
-3°C / 27°F
Humidity
31%
Altimeter
30.03" Hg
Pressure
1016.92 hPa